Time;durP1;ratioP1;P1;durP2;ratioP2;P2;SDS_P1;SDS_P2;PMS_P1;PMS_P2;Temp;Humidity;BMP_temperature;BMP_pressure;BME280_temperature;BME280_humidity;BME280_pressure;Samples;Min_cycle;Max_cycle;Signal;HPM_P1;HPM_P2
2023/03/09 00:10:55;;;;;;;33.00;18.40;;;;;;;-3.45;100.00;98843.75;6135528;23;20137;31
2023/03/09 00:13:22;;;;;;;30.65;18.98;;;;;;;-3.37;100.00;98828.28;6151029;23;20041;-70
2023/03/09 00:15:52;;;;;;;34.10;19.70;;;;;;;-3.39;100.00;98831.97;6150626;23;20021;-70
2023/03/09 00:23:42;;;;;;;34.75;20.17;;;;;;;-3.43;100.00;98833.16;6166669;22;20040;-73
2023/03/09 00:26:09;;;;;;;37.83;20.83;;;;;;;-3.51;100.00;98833.75;6209530;23;20099;-72
2023/03/09 00:28:35;;;;;;;37.75;20.02;;;;;;;-3.43;100.00;98839.25;6208092;23;20020;-72
2023/03/09 00:31:07;;;;;;;32.88;18.92;;;;;;;-3.50;100.00;98835.41;6179886;23;20045;-73
2023/03/09 00:33:33;;;;;;;;;;;;;;;-3.43;100.00;98841.03;6200191;23;20338;-73
2023/03/09 00:36:00;;;;;;;33.60;18.48;;;;;;;-3.50;100.00;98832.81;6209931;23;19915;-73
2023/03/09 00:38:26;;;;;;;34.33;18.35;;;;;;;-3.46;100.00;98836.84;6209425;23;20096;-73
2023/03/09 00:40:53;;;;;;;34.83;19.80;;;;;;;-3.48;100.00;98838.78;6209389;23;20023;-72
2023/03/09 00:43:19;;;;;;;36.28;19.45;;;;;;;-3.53;100.00;98841.72;6206702;23;20024;-72
2023/03/09 00:45:46;;;;;;;36.60;20.60;;;;;;;-3.58;100.00;98843.88;6209547;23;20016;-71
2023/03/09 00:48:13;;;;;;;36.22;19.55;;;;;;;-3.46;100.00;98841.25;6190939;23;20033;-73
2023/03/09 00:50:39;;;;;;;39.35;19.45;;;;;;;-3.47;100.00;98842.22;6189935;23;20023;-72
2023/03/09 00:53:06;;;;;;;38.35;21.27;;;;;;;-3.47;100.00;98842.22;6209011;23;20021;-73
2023/03/09 00:55:32;;;;;;;38.38;19.95;;;;;;;-3.49;100.00;98842.31;6210091;23;20032;-72
2023/03/09 00:57:59;;;;;;;36.40;20.15;;;;;;;-3.47;100.00;98834.34;6192402;23;20397;-72
2023/03/09 01:00:26;;;;;;;35.75;19.88;;;;;;;-3.48;100.00;98830.03;6186482;23;20025;-73
2023/03/09 01:02:53;;;;;;;36.15;20.92;;;;;;;-3.44;100.00;98821.84;6209849;23;20378;-72
2023/03/09 01:05:20;;;;;;;43.00;22.52;;;;;;;-3.50;100.00;98830.19;6209690;23;20099;-73
2023/03/09 01:07:47;;;;;;;40.55;22.35;;;;;;;-3.54;100.00;98810.41;6209324;23;20425;-73
2023/03/09 01:10:13;;;;;;;37.33;20.73;;;;;;;-3.44;100.00;98815.78;6211224;23;20028;-72
2023/03/09 01:12:40;;;;;;;41.45;21.58;;;;;;;-3.46;100.00;98808.00;6210441;23;20027;-72
2023/03/09 01:15:07;;;;;;;42.03;22.90;;;;;;;-3.49;100.00;98810.88;6209764;23;20020;-72
2023/03/09 01:17:33;;;;;;;41.83;23.13;;;;;;;-3.55;100.00;98813.94;6209012;23;20025;-72
2023/03/09 01:19:59;;;;;;;39.08;22.67;;;;;;;-3.55;100.00;98804.31;6208575;23;20083;-72
2023/03/09 01:22:26;;;;;;;42.17;22.98;;;;;;;-3.50;100.00;98803.97;6175661;23;20055;-72
2023/03/09 01:24:53;;;;;;;44.90;24.58;;;;;;;-3.51;100.00;98797.06;6165215;23;20029;-72
2023/03/09 01:27:20;;;;;;;48.88;25.95;;;;;;;-3.42;100.00;98808.63;6149581;23;20026;-72
2023/03/09 01:29:46;;;;;;;42.45;23.60;;;;;;;-3.50;100.00;98806.59;6149161;23;20022;-71
2023/03/09 01:32:13;;;;;;;40.63;23.65;;;;;;;-3.47;100.00;98801.09;6151256;23;20013;-73
2023/03/09 01:34:39;;;;;;;45.00;24.52;;;;;;;-3.46;100.00;98801.94;6149625;23;20017;-73
2023/03/09 01:37:06;;;;;;;45.60;25.15;;;;;;;-3.56;100.00;98789.53;6151052;23;20025;-73
2023/03/09 01:39:33;;;;;;;43.25;24.48;;;;;;;-3.47;100.00;98790.63;6149785;23;20040;-72
2023/03/09 01:41:59;;;;;;;47.05;24.80;;;;;;;-3.56;100.00;98783.47;6149967;23;20100;-73
2023/03/09 01:44:26;;;;;;;50.28;25.80;;;;;;;-3.58;100.00;98788.00;6148011;23;20029;-73
2023/03/09 01:46:56;;;;;;;50.40;26.45;;;;;;;-3.59;100.00;98792.38;6143440;23;20017;-73
2023/03/09 01:49:26;;;;;;;54.27;27.50;;;;;;;-3.69;100.00;98796.66;6165854;23;20021;-72
2023/03/09 01:52:17;;;;;;;53.25;26.38;;;;;;;-3.66;100.00;98788.56;6151402;23;20556;-72
2023/03/09 01:54:49;;;;;;;50.72;27.30;;;;;;;-3.70;100.00;98779.28;6151994;23;20021;-72
2023/03/09 01:57:36;;;;;;;50.63;26.40;;;;;;;-3.66;100.00;98779.88;6150577;23;20024;-72
2023/03/09 02:00:07;;;;;;;50.13;25.90;;;;;;;-3.71;100.00;98775.00;6151597;23;20025;-73
2023/03/09 02:02:38;;;;;;;52.90;26.67;;;;;;;-3.73;100.00;98770.81;6151308;23;20029;-73
2023/03/09 02:08:52;;;;;;;52.47;27.15;;;;;;;-3.75;100.00;98773.56;6150603;23;20092;-73
2023/03/09 02:11:19;;;;;;;58.63;28.63;;;;;;;-3.78;100.00;98779.03;6152430;23;20336;-73
2023/03/09 02:13:50;;;;;;;56.60;27.88;;;;;;;-3.73;100.00;98789.16;6153007;23;20317;-73
2023/03/09 02:16:17;;;;;;;;;;;;;;;-3.78;100.00;98779.03;6152299;23;20017;-73
2023/03/09 02:18:43;;;;;;;56.13;28.73;;;;;;;-3.69;100.00;98780.09;6151472;23;19952;-73
2023/03/09 02:21:34;;;;;;;60.72;29.15;;;;;;;-3.66;100.00;98774.63;6150574;23;20331;-73
2023/03/09 02:24:22;;;;;;;39.63;20.90;;;;;;;-3.72;100.00;98756.75;6155847;23;20025;-73
2023/03/09 02:27:07;;;;;;;57.25;27.67;;;;;;;-3.81;100.00;98753.91;6181879;23;20438;-73
2023/03/09 02:29:34;;;;;;;56.42;28.67;;;;;;;-3.82;100.00;98752.22;6181431;23;20021;-73
2023/03/09 02:32:01;;;;;;;62.90;30.25;;;;;;;-3.82;100.00;98751.41;6181284;23;20017;-73
2023/03/09 02:34:27;;;;;;;57.40;29.75;;;;;;;-3.83;100.00;98747.94;6181180;23;20048;-73
2023/03/09 02:36:54;;;;;;;63.15;29.35;;;;;;;-3.81;100.00;98748.66;6181190;23;20349;-72
2023/03/09 02:39:47;;;;;;;63.17;31.27;;;;;;;-3.82;100.00;98749.63;6182262;23;20327;-72
2023/03/09 02:42:13;;;;;;;62.08;29.45;;;;;;;-3.80;100.00;98745.06;6181112;23;20025;-73
2023/03/09 02:44:40;;;;;;;63.72;30.85;;;;;;;-3.90;100.00;98738.88;6178907;23;20031;-73
2023/03/09 02:47:08;;;;;;;61.70;31.13;;;;;;;-3.86;100.00;98744.69;6181317;23;20044;-73
2023/03/09 02:49:35;;;;;;;62.95;30.75;;;;;;;-3.80;100.00;98742.44;6181831;23;20021;-73
2023/03/09 02:52:01;;;;;;;56.25;28.95;;;;;;;-3.81;100.00;98734.72;6173910;23;20021;-73
2023/03/09 02:54:28;;;;;;;69.03;30.35;;;;;;;-3.85;100.00;98730.69;6181338;23;20025;-73
2023/03/09 02:56:54;;;;;;;59.60;30.27;;;;;;;-3.86;100.00;98728.97;6181875;23;20482;-72
2023/03/09 02:59:20;;;;;;;66.82;30.92;;;;;;;-3.95;100.00;98738.41;6182376;23;20323;-73
2023/03/09 03:01:47;;;;;;;55.33;28.83;;;;;;;-3.96;100.00;98736.75;6179128;23;20017;-73
2023/03/09 03:04:13;;;;;;;61.53;30.30;;;;;;;-3.96;100.00;98739.34;6179633;23;20036;-71
2023/03/09 03:06:40;;;;;;;63.60;30.42;;;;;;;-3.88;100.00;98739.59;6180265;23;20021;-73
2023/03/09 03:09:06;;;;;;;66.63;31.38;;;;;;;-3.89;100.00;98732.69;6180859;23;20327;-73
2023/03/09 03:11:33;;;;;;;71.15;32.47;;;;;;;-4.02;100.00;98726.72;6180153;23;20469;-72
2023/03/09 03:13:59;;;;;;;68.88;30.98;;;;;;;-3.98;100.00;98725.53;6165902;23;20035;-72
2023/03/09 03:16:26;;;;;;;70.95;31.55;;;;;;;-3.98;100.00;98724.69;6180360;23;20025;-72
2023/03/09 03:18:53;;;;;;;63.22;30.60;;;;;;;-3.91;100.00;98726.72;6181521;23;20092;-73
2023/03/09 03:21:19;;;;;;;63.78;29.92;;;;;;;-3.93;100.00;98733.88;6180771;23;20021;-72
2023/03/09 03:23:46;;;;;;;67.95;30.65;;;;;;;-3.97;100.00;98729.81;6183519;23;20466;-72
2023/03/09 03:26:12;;;;;;;71.15;32.72;;;;;;;-4.00;100.00;98722.22;6207449;23;20051;-72
2023/03/09 03:28:39;;;;;;;67.47;29.95;;;;;;;-4.10;100.00;98719.44;6210586;23;20033;-72
2023/03/09 03:31:07;;;;;;;66.60;30.00;;;;;;;-4.07;100.00;98716.59;6180875;23;20029;-72
2023/03/09 03:33:34;;;;;;;64.70;29.35;;;;;;;-4.04;100.00;98715.50;6200643;23;20020;-72
2023/03/09 03:36:00;;;;;;;63.35;29.55;;;;;;;-3.98;100.00;98719.47;6210357;23;20020;-72
2023/03/09 03:38:27;;;;;;;63.58;29.33;;;;;;;-4.11;100.00;98716.94;6209333;23;20024;-71
2023/03/09 03:40:53;;;;;;;67.93;30.38;;;;;;;-4.09;100.00;98712.41;6211032;23;20017;-72
2023/03/09 03:43:20;;;;;;;58.97;29.60;;;;;;;-4.10;100.00;98716.00;6210989;23;20377;-71
2023/03/09 03:45:46;;;;;;;68.82;28.92;;;;;;;-4.04;100.00;98721.56;6210361;23;20361;-73
2023/03/09 03:48:13;;;;;;;65.85;30.42;;;;;;;-4.09;100.00;98718.50;6206029;23;20091;-71
2023/03/09 03:50:40;;;;;;;62.60;29.38;;;;;;;-4.07;100.00;98718.34;6211129;23;20034;-73
2023/03/09 03:53:06;;;;;;;62.58;28.48;;;;;;;-4.00;100.00;98714.34;6209890;23;20051;-73
2023/03/09 03:55:33;;;;;;;60.20;27.67;;;;;;;-4.13;100.00;98698.72;6209991;23;20481;-71
2023/03/09 03:58:00;;;;;;;60.35;26.63;;;;;;;-4.16;100.00;98700.75;6209078;23;20071;-71
2023/03/09 04:00:26;;;;;;;58.03;28.00;;;;;;;-4.15;100.00;98694.56;6209777;23;20028;-70
2023/03/09 04:02:54;;;;;;;53.88;24.80;;;;;;;-4.17;100.00;98699.06;6210688;23;20358;-72
2023/03/09 04:05:20;;;;;;;70.25;27.08;;;;;;;-4.25;100.00;98691.78;6203731;23;20483;-72
2023/03/09 04:07:48;;;;;;;62.53;27.15;;;;;;;-4.21;100.00;98692.38;6205672;23;20087;-72
2023/03/09 04:10:15;;;;;;;59.13;27.67;;;;;;;-4.23;100.00;98695.13;6210485;23;20029;-71
2023/03/09 04:12:41;;;;;;;57.83;26.45;;;;;;;-4.23;100.00;98704.78;6209449;23;20035;-72
2023/03/09 04:15:08;;;;;;;63.40;27.58;;;;;;;-4.17;100.00;98699.06;6209152;23;20119;-72
2023/03/09 04:17:34;;;;;;;66.45;26.73;;;;;;;-4.20;100.00;98694.91;6202366;23;20024;-71
2023/03/09 04:20:02;;;;;;;65.15;27.25;;;;;;;-4.26;100.00;98693.56;6210295;23;20453;-70
2023/03/09 04:22:28;;;;;;;58.30;27.55;;;;;;;-4.25;100.00;98691.78;6209483;23;20108;-71
2023/03/09 04:24:55;;;;;;;61.50;27.13;;;;;;;-4.26;100.00;98704.06;6209177;23;20020;-69
2023/03/09 04:27:21;;;;;;;52.53;25.83;;;;;;;-4.30;100.00;98707.03;6210805;23;20024;-71
2023/03/09 04:29:48;;;;;;;64.63;26.50;;;;;;;-4.22;100.00;98709.06;6208262;23;20051;-71
2023/03/09 04:32:14;;;;;;;62.92;27.60;;;;;;;-4.20;100.00;98701.94;6208741;23;20033;-70
2023/03/09 04:34:41;;;;;;;54.70;27.38;;;;;;;-4.27;100.00;98709.41;6208413;23;20028;-71
2023/03/09 04:37:07;;;;;;;59.35;28.40;;;;;;;-4.23;100.00;98712.63;6208789;23;20034;-71
2023/03/09 04:39:34;;;;;;;61.40;28.27;;;;;;;-4.25;100.00;98708.31;6208481;23;20031;-71
2023/03/09 04:42:00;;;;;;;52.55;27.05;;;;;;;-4.21;100.00;98708.94;6209206;23;20107;-70
2023/03/09 04:44:27;;;;;;;57.30;28.35;;;;;;;-4.21;100.00;98708.09;6208282;23;20024;-72
2023/03/09 04:46:53;;;;;;;57.58;28.33;;;;;;;-4.17;100.00;98704.28;6207658;23;20021;-70
2023/03/09 04:49:20;;;;;;;58.92;28.90;;;;;;;-4.21;100.00;98713.34;6209905;23;20044;-71
2023/03/09 04:51:46;;;;;;;56.13;27.42;;;;;;;-4.23;100.00;98708.22;6209377;23;20016;-72
2023/03/09 04:54:12;;;;;;;62.85;30.35;;;;;;;-4.22;100.00;98727.38;6208752;23;20021;-70
2023/03/09 04:56:39;;;;;;;61.60;28.98;;;;;;;-4.18;100.00;98724.41;6208330;23;20024;-71
2023/03/09 04:59:05;;;;;;;56.85;30.05;;;;;;;-4.25;100.00;98731.06;6209469;23;20027;-71
2023/03/09 05:01:32;;;;;;;62.35;29.20;;;;;;;-4.21;100.00;98740.34;6208646;23;20024;-71
2023/03/09 05:03:58;;;;;;;60.15;30.40;;;;;;;-4.25;100.00;98739.75;6210353;23;20055;-73
2023/03/09 05:06:25;;;;;;;58.03;29.80;;;;;;;-4.22;100.00;98738.69;6211318;23;20044;-71
2023/03/09 05:08:51;;;;;;;60.67;30.20;;;;;;;-4.23;100.00;98746.66;6184625;23;20017;-71
2023/03/09 05:11:18;;;;;;;70.25;31.55;;;;;;;-4.12;100.00;98749.31;6209259;23;20051;-71
2023/03/09 05:13:45;;;;;;;66.68;32.13;;;;;;;-4.12;100.00;98751.94;6208399;23;20035;-71
2023/03/09 05:16:11;;;;;;;67.20;33.78;;;;;;;-4.12;100.00;98750.16;6210071;23;20032;-71
2023/03/09 05:18:38;;;;;;;59.35;29.50;;;;;;;-4.07;100.00;98757.63;6208288;23;20044;-71
2023/03/09 05:21:08;;;;;;;67.03;30.75;;;;;;;-4.19;100.00;98754.16;6209498;23;20030;-71
2023/03/09 05:23:35;;;;;;;69.15;31.55;;;;;;;-4.22;100.00;98754.41;6209467;23;20112;-72
2023/03/09 05:26:06;;;;;;;61.47;30.15;;;;;;;-4.20;100.00;98749.06;6208126;23;20099;-66
2023/03/09 05:28:35;;;;;;;67.45;31.30;;;;;;;-4.19;100.00;98756.78;6208893;23;20442;-67
2023/03/09 05:31:01;;;;;;;61.83;30.23;;;;;;;-4.20;100.00;98757.75;6209592;23;20442;-66
2023/03/09 05:33:28;;;;;;;64.10;31.65;;;;;;;-4.21;100.00;98763.09;6209341;23;20025;-68
2023/03/09 05:35:55;;;;;;;61.75;31.48;;;;;;;-4.22;100.00;98758.81;6210379;23;20024;-65
2023/03/09 05:38:22;;;;;;;67.38;32.85;;;;;;;-4.22;100.00;98759.63;6209503;23;20025;-65
2023/03/09 05:40:48;;;;;;;64.05;33.35;;;;;;;-4.25;100.00;98754.63;6209839;23;20411;-65
2023/03/09 05:43:15;;;;;;;61.78;32.83;;;;;;;-4.23;100.00;98757.16;6209735;23;20021;-65
2023/03/09 05:45:41;;;;;;;71.25;33.13;;;;;;;-4.24;100.00;98758.94;6209581;23;20456;-65
2023/03/09 05:48:08;;;;;;;76.22;34.63;;;;;;;-4.18;100.00;98765.47;6209110;23;20063;-67
2023/03/09 05:50:36;;;;;;;65.05;32.78;;;;;;;-4.22;100.00;98759.63;6209593;23;20024;-65
2023/03/09 05:53:03;;;;;;;72.00;34.13;;;;;;;-4.18;100.00;98768.09;6210213;23;20024;-65
2023/03/09 05:55:30;;;;;;;67.60;32.78;;;;;;;-4.28;100.00;98766.19;6204924;23;20021;-64
2023/03/09 05:57:56;;;;;;;71.68;35.25;;;;;;;-4.18;100.00;98771.53;6209788;23;20044;-67
2023/03/09 06:00:23;;;;;;;79.80;34.97;;;;;;;-4.20;100.00;98775.25;6210219;23;20076;-64
2023/03/09 06:02:49;;;;;;;74.75;35.33;;;;;;;-4.22;100.00;98785.00;6169903;23;20340;-64
2023/03/09 06:05:16;;;;;;;72.18;35.28;;;;;;;-4.17;100.00;98795.94;6210012;23;20095;-64
2023/03/09 06:07:43;;;;;;;72.53;34.58;;;;;;;-4.19;100.00;98798.69;6210325;23;20025;-64
2023/03/09 06:10:11;;;;;;;71.50;34.58;;;;;;;-4.19;100.00;98803.09;6170704;23;20100;-65
2023/03/09 06:12:37;;;;;;;70.65;34.58;;;;;;;-4.20;100.00;98802.25;6209764;23;20023;-65
2023/03/09 06:15:04;;;;;;;72.38;33.83;;;;;;;-4.18;100.00;98802.97;6209873;23;20088;-65
2023/03/09 06:17:31;;;;;;;70.13;34.55;;;;;;;-4.15;100.00;98801.91;6209326;23;20092;-65
2023/03/09 06:19:57;;;;;;;76.97;37.42;;;;;;;-4.15;100.00;98802.75;6210112;23;20393;-66
2023/03/09 06:22:24;;;;;;;73.45;35.58;;;;;;;-4.12;100.00;98814.78;6209955;23;20048;-65
2023/03/09 06:24:51;;;;;;;69.13;34.45;;;;;;;-4.13;100.00;98811.34;6208272;23;20099;-65
2023/03/09 06:27:17;;;;;;;74.07;35.90;;;;;;;-4.11;100.00;98813.81;6208630;23;20032;-65
2023/03/09 06:29:43;;;;;;;70.05;34.33;;;;;;;-4.12;100.00;98817.41;6209740;23;20530;-65
2023/03/09 06:32:10;;;;;;;77.30;36.15;;;;;;;-4.08;100.00;98819.66;6182456;23;20025;-65
2023/03/09 06:34:37;;;;;;;73.25;36.53;;;;;;;-4.03;100.00;98832.44;6209925;23;20064;-65
2023/03/09 06:37:03;;;;;;;73.22;36.97;;;;;;;-4.03;100.00;98841.13;6211647;23;20095;-65
2023/03/09 06:39:30;;;;;;;74.30;37.03;;;;;;;-4.06;100.00;98840.53;6184481;23;20029;-65
2023/03/09 06:41:56;;;;;;;79.25;38.13;;;;;;;-4.02;100.00;98849.81;6200869;23;20024;-65
2023/03/09 06:44:23;;;;;;;78.53;37.35;;;;;;;-4.04;100.00;98847.28;6211867;23;20035;-64
2023/03/09 06:46:49;;;;;;;71.60;37.50;;;;;;;-4.10;100.00;98846.94;6210768;23;20159;-64
2023/03/09 06:49:16;;;;;;;71.32;37.13;;;;;;;-4.02;100.00;98868.97;6210933;23;20043;-68
2023/03/09 06:51:42;;;;;;;75.28;37.30;;;;;;;-4.02;100.00;98868.16;6211517;23;20017;-67
2023/03/09 06:54:09;;;;;;;73.20;37.55;;;;;;;-3.97;100.00;98868.63;6211367;23;20016;-67
2023/03/09 06:56:36;;;;;;;69.25;35.97;;;;;;;-3.91;100.00;98872.59;6210508;23;20016;-67
2023/03/09 06:59:02;;;;;;;68.88;34.38;;;;;;;-3.99;100.00;98867.94;6210521;23;20099;-68
2023/03/09 07:01:29;;;;;;;74.50;37.40;;;;;;;-3.96;100.00;98870.31;6211065;23;20024;-67
2023/03/09 07:03:55;;;;;;;64.38;33.78;;;;;;;-3.95;100.00;98882.47;6211820;23;20520;-67
2023/03/09 07:06:22;;;;;;;67.18;35.25;;;;;;;-3.92;100.00;98884.88;6170939;23;20024;-67
2023/03/09 07:08:49;;;;;;;66.63;33.35;;;;;;;-4.00;100.00;98897.69;6210642;23;20454;-67
2023/03/09 07:11:15;;;;;;;64.18;33.80;;;;;;;-3.99;100.00;98894.13;6211108;23;20039;-68
2023/03/09 07:13:42;;;;;;;64.40;33.08;;;;;;;-3.98;100.00;98908.03;6211499;23;20020;-67
2023/03/09 07:16:08;;;;;;;61.90;32.25;;;;;;;-4.02;100.00;98917.91;6211111;23;20400;-67
2023/03/09 07:18:35;;;;;;;59.75;30.77;;;;;;;-3.99;100.00;98922.09;6210330;23;20027;-67
2023/03/09 07:21:03;;;;;;;65.97;32.33;;;;;;;-3.95;100.00;98929.63;6168816;23;20020;-67
2023/03/09 07:23:31;;;;;;;55.42;30.42;;;;;;;-3.96;100.00;98935.81;6210254;23;20099;-68
2023/03/09 07:26:00;;;;;;;57.83;32.63;;;;;;;-3.92;100.00;98937.25;6152537;23;20028;-72
2023/03/09 07:28:27;;;;;;;52.55;30.75;;;;;;;-3.92;100.00;98950.34;6152575;23;20351;-72
2023/03/09 07:30:54;;;;;;;53.70;30.15;;;;;;;-3.83;100.00;98957.56;6152921;23;20419;-73
2023/03/09 07:33:21;;;;;;;53.80;29.50;;;;;;;-3.80;100.00;98961.72;6150789;23;20033;-73
2023/03/09 07:35:48;;;;;;;58.22;29.40;;;;;;;-3.85;100.00;98959.44;6150912;23;20467;-73
2023/03/09 07:38:14;;;;;;;55.53;27.35;;;;;;;-3.91;100.00;98952.00;6150286;23;20072;-73
2023/03/09 07:40:41;;;;;;;50.17;27.52;;;;;;;-4.00;100.00;98942.22;6148805;23;20036;-74
2023/03/09 07:43:11;;;;;;;47.47;26.88;;;;;;;-3.97;100.00;98957.69;6150925;23;20096;-73
2023/03/09 07:45:39;;;;;;;46.35;25.55;;;;;;;-3.93;100.00;98961.78;6152086;23;20018;-72
2023/03/09 07:48:06;;;;;;;50.28;27.02;;;;;;;-3.95;100.00;98973.31;6148180;23;20024;-73
2023/03/09 07:50:33;;;;;;;48.53;25.95;;;;;;;-3.92;100.00;98966.06;6149173;23;20026;-71
2023/03/09 07:52:59;;;;;;;42.47;24.50;;;;;;;-3.91;100.00;98969.53;6150642;23;20013;-73
2023/03/09 07:55:26;;;;;;;40.75;25.17;;;;;;;-3.96;100.00;98969.88;6150318;23;20022;-74
2023/03/09 07:57:53;;;;;;;53.50;24.90;;;;;;;-3.93;100.00;98980.13;6150163;23;20100;-74
2023/03/09 08:00:22;;;;;;;43.08;24.83;;;;;;;-3.87;100.00;98990.13;6147274;23;20045;-73
2023/03/09 08:02:49;;;;;;;44.45;24.70;;;;;;;-3.92;100.00;99001.91;6147023;23;20026;-74
2023/03/09 08:05:16;;;;;;;42.30;25.38;;;;;;;-3.86;100.00;99011.94;6147345;23;20017;-72
2023/03/09 08:07:43;;;;;;;46.28;24.15;;;;;;;-3.96;100.00;99019.63;6148024;23;20026;-73
2023/03/09 08:10:10;;;;;;;38.42;24.20;;;;;;;-3.98;100.00;99012.81;6146288;23;20028;-73
2023/03/09 08:12:37;;;;;;;43.42;26.13;;;;;;;-3.91;100.00;99014.88;6149482;23;20099;-73
2023/03/09 08:15:04;;;;;;;45.95;24.67;;;;;;;-3.92;100.00;99017.63;6151096;23;20421;-72
2023/03/09 08:17:31;;;;;;;47.17;26.63;;;;;;;-3.89;100.00;99022.66;6150556;23;20041;-73
2023/03/09 08:20:01;;;;;;;38.47;23.17;;;;;;;-3.95;100.00;99028.31;6150681;23;20017;-73
2023/03/09 08:22:27;;;;;;;44.53;25.67;;;;;;;-3.90;100.00;99023.59;6150299;23;21521;-73
2023/03/09 08:24:54;;;;;;;42.38;23.30;;;;;;;-3.85;100.00;99034.59;6183372;23;20457;-73
2023/03/09 08:27:20;;;;;;;38.28;24.00;;;;;;;-3.79;100.00;99034.97;6209997;23;20376;-73
2023/03/09 08:29:47;;;;;;;43.72;24.50;;;;;;;-3.77;100.00;99032.25;6210328;23;20024;-73
2023/03/09 08:32:13;;;;;;;42.03;24.50;;;;;;;-3.67;100.00;99033.25;6209506;23;20071;-73
2023/03/09 08:34:41;;;;;;;40.40;23.88;;;;;;;-3.60;100.00;99036.25;6208869;23;20457;-73
2023/03/09 08:37:07;;;;;;;40.63;24.35;;;;;;;-3.74;100.00;99036.44;6211808;23;20020;-73
2023/03/09 08:39:34;;;;;;;39.42;24.20;;;;;;;-3.72;100.00;99031.91;6209697;23;20039;-72
2023/03/09 08:42:00;;;;;;;43.78;24.80;;;;;;;-3.59;100.00;99045.78;6209851;23;20020;-73
2023/03/09 08:44:27;;;;;;;46.08;25.60;;;;;;;-3.50;100.00;99046.94;6209665;23;20405;-73
2023/03/09 08:46:55;;;;;;;40.67;24.20;;;;;;;-3.70;100.00;99058.84;6210225;23;20420;-73
2023/03/09 08:49:21;;;;;;;44.90;25.45;;;;;;;-3.64;100.00;99061.03;6208700;23;20405;-73
2023/03/09 08:51:50;;;;;;;41.13;25.63;;;;;;;-3.73;100.00;99054.66;6209578;23;20048;-73
2023/03/09 08:54:16;;;;;;;43.25;25.63;;;;;;;-3.62;100.00;99061.75;6204538;23;20025;-73
2023/03/09 08:56:43;;;;;;;48.50;26.88;;;;;;;-3.59;100.00;99056.28;6210355;23;20427;-73
2023/03/09 08:59:09;;;;;;;48.08;27.70;;;;;;;-3.52;100.00;99054.88;6188755;23;20362;-74
2023/03/09 09:01:36;;;;;;;47.85;27.73;;;;;;;-3.55;100.00;99074.31;6189627;23;20087;-73
2023/03/09 09:04:03;;;;;;;52.28;27.48;;;;;;;-3.47;100.00;99078.16;6209493;23;20025;-73
2023/03/09 09:06:31;;;;;;;48.20;27.23;;;;;;;-3.43;100.00;99087.47;6208863;23;20046;-74
2023/03/09 09:08:57;;;;;;;46.30;26.10;;;;;;;-3.46;100.00;99085.91;6209077;23;20051;-74
2023/03/09 09:11:24;;;;;;;50.88;27.98;;;;;;;-3.56;100.00;99090.97;6209234;23;20031;-73
2023/03/09 09:13:52;;;;;;;44.75;26.40;;;;;;;-3.72;100.00;99089.56;6207295;23;20079;-74
2023/03/09 09:16:18;;;;;;;47.90;27.13;;;;;;;-3.70;100.00;99098.97;6209418;23;20032;-74
2023/03/09 09:18:45;;;;;;;45.83;27.77;;;;;;;-3.73;100.00;99106.22;6209255;23;20016;-73
2023/03/09 09:21:14;;;;;;;51.22;28.35;;;;;;;-3.70;100.00;99106.00;6208964;23;20075;-73
2023/03/09 09:23:42;;;;;;;48.03;28.40;;;;;;;-3.65;100.00;99114.41;6208550;23;20078;-73
2023/03/09 09:26:11;;;;;;;53.78;29.25;;;;;;;-3.60;100.00;99115.72;6209743;23;20021;-71
2023/03/09 09:28:39;;;;;;;53.70;29.80;;;;;;;-3.53;100.00;99118.75;6210890;23;20031;-73
2023/03/09 09:31:05;;;;;;;53.75;29.50;;;;;;;-3.58;100.00;99121.72;6210789;23;20046;-74
2023/03/09 09:33:34;;;;;;;52.08;29.63;;;;;;;-3.52;100.00;99120.41;6208909;23;20047;-73
2023/03/09 09:36:02;;;;;;;50.58;29.58;;;;;;;-3.41;100.00;99120.50;6210200;23;20346;-74
2023/03/09 09:38:30;;;;;;;48.67;30.27;;;;;;;-3.42;100.00;99131.09;6209605;23;20028;-73
2023/03/09 09:41:02;;;;;;;49.38;28.55;;;;;;;-3.47;100.00;99130.59;6207712;23;20119;-73
2023/03/09 09:43:31;;;;;;;51.78;29.73;;;;;;;-3.43;100.00;99132.03;6183500;23;20039;-73
2023/03/09 09:46:00;;;;;;;49.08;28.95;;;;;;;-3.52;100.00;99128.28;6208758;23;20074;-74
2023/03/09 09:48:28;;;;;;;57.97;30.70;;;;;;;-3.54;100.00;99133.66;6208886;23;20029;-73
2023/03/09 09:51:07;;;;;;;46.83;29.08;;;;;;;-3.44;100.00;99146.13;6209636;23;20102;-74
2023/03/09 09:53:50;;;;;;;50.15;30.05;;;;;;;-3.44;100.00;99144.31;6209285;23;20024;-73
2023/03/09 09:56:21;;;;;;;53.30;30.45;;;;;;;-3.38;100.00;99143.84;6209714;23;20375;-73
2023/03/09 09:59:00;;;;;;;51.60;30.38;;;;;;;-3.42;100.00;99141.56;6207930;23;20048;-73
2023/03/09 10:01:48;;;;;;;52.38;28.85;;;;;;;-3.39;100.00;99147.44;6208938;23;20055;-74
2023/03/09 10:04:26;;;;;;;52.05;30.92;;;;;;;-3.40;100.00;99147.56;6209459;23;20027;-74
2023/03/09 10:06:56;;;;;;;51.70;29.40;;;;;;;-3.36;100.00;99160.34;6209450;23;20020;-74
2023/03/09 10:09:30;;;;;;;45.30;24.05;;;;;;;-3.41;100.00;99166.84;6210034;23;20029;-74
2023/03/09 10:12:06;;;;;;;52.30;30.30;;;;;;;-3.45;100.00;99175.88;6211278;23;20025;-74
2023/03/09 10:14:38;;;;;;;55.45;31.58;;;;;;;-3.34;100.00;99175.97;6170844;23;20470;-74
2023/03/09 10:17:14;;;;;;;56.53;31.67;;;;;;;-3.28;100.00;99176.34;6212046;23;20299;-74
2023/03/09 10:19:42;;;;;;;55.03;31.15;;;;;;;-3.37;100.00;99179.66;6211978;23;20020;-74
2023/03/09 10:22:11;;;;;;;54.17;31.20;;;;;;;-3.39;100.00;99171.03;6211376;23;20103;-74
2023/03/09 10:24:43;;;;;;;55.80;32.38;;;;;;;-3.29;100.00;99174.69;6212707;23;20100;-73
2023/03/09 10:27:27;;;;;;;57.65;31.10;;;;;;;-3.33;100.00;99181.09;6209010;23;20368;-73
2023/03/09 10:30:05;;;;;;;57.33;32.00;;;;;;;-3.32;100.00;99193.25;6211591;23;20047;-74
2023/03/09 10:32:40;;;;;;;63.03;32.45;;;;;;;-3.24;100.00;99195.31;6212134;23;20017;-73
2023/03/09 10:35:19;;;;;;;62.47;30.98;;;;;;;-3.30;100.00;99204.47;6212328;23;20024;-74
2023/03/09 10:37:48;;;;;;;51.38;30.35;;;;;;;-3.38;100.00;99211.19;6210568;23;20407;-73
2023/03/09 10:40:24;;;;;;;57.45;32.53;;;;;;;-3.45;100.00;99221.28;6212405;23;20028;-73
2023/03/09 10:42:51;;;;;;;55.92;31.35;;;;;;;-3.43;100.00;99223.81;6210924;23;20024;-74
2023/03/09 10:45:23;;;;;;;52.22;31.92;;;;;;;-3.47;100.00;99223.19;6210685;23;20027;-74
2023/03/09 10:47:50;;;;;;;52.75;30.70;;;;;;;-3.42;100.00;99215.81;6211788;23;20021;-73
2023/03/09 10:50:19;;;;;;;54.92;32.22;;;;;;;-3.37;100.00;99213.72;6210335;23;20044;-73
2023/03/09 10:52:52;;;;;;;54.45;31.17;;;;;;;-3.47;100.00;99210.09;6210835;23;20104;-74
2023/03/09 10:55:43;;;;;;;57.90;31.40;;;;;;;-3.42;100.00;99215.00;6184700;23;20460;-72
2023/03/09 10:58:21;;;;;;;56.03;31.23;;;;;;;-3.46;100.00;99218.78;6208202;23;20032;-73
2023/03/09 11:00:54;;;;;;;56.83;32.22;;;;;;;-3.33;100.00;99228.28;6209921;23;20103;-73
2023/03/09 11:03:23;;;;;;;58.33;32.13;;;;;;;-3.27;100.00;99227.03;6210984;23;20358;-73
2023/03/09 11:05:50;;;;;;;56.65;32.45;;;;;;;-3.23;100.00;99225.03;6211835;23;20027;-73
2023/03/09 11:08:27;;;;;;;60.70;34.17;;;;;;;-3.21;100.00;99228.38;6212143;23;20091;-73
2023/03/09 11:11:03;;;;;;;58.08;32.78;;;;;;;-3.07;100.00;99234.28;6210626;23;20021;-73
2023/03/09 11:13:29;;;;;;;58.80;33.88;;;;;;;-3.11;100.00;99245.13;6211519;23;20100;-73
2023/03/09 11:16:13;;;;;;;60.30;34.22;;;;;;;-3.15;100.00;99254.16;6211245;23;20460;-73
2023/03/09 11:18:40;;;;;;;60.85;32.83;;;;;;;-3.10;100.00;99246.78;6211329;23;20115;-73
2023/03/09 11:21:06;;;;;;;58.17;34.55;;;;;;;-2.99;100.00;99253.94;6209911;23;20020;-73
2023/03/09 11:23:39;;;;;;;59.40;36.10;;;;;;;-3.02;100.00;99251.53;6209920;23;20028;-73
2023/03/09 11:26:23;;;;;;;59.35;34.97;;;;;;;-2.97;100.00;99250.22;6210112;23;20024;-73
2023/03/09 11:28:55;;;;;;;64.63;36.63;;;;;;;-3.08;100.00;99253.63;6211244;23;20103;-74
2023/03/09 11:31:33;;;;;;;57.60;34.35;;;;;;;-3.10;100.00;99262.53;6211416;23;20025;-72
2023/03/09 11:34:01;;;;;;;60.53;32.67;;;;;;;-3.19;100.00;99250.09;6210658;23;20016;-73